Decoded Metar for KDBQ (DUBUQUE in IA, USA) (IATA:DBQ) | Meteo·Mobile Aviation Weather
aviador You're here:

KDBQ Decoded Metar

DUBUQUE in IA, USA
Report Time2018-09-21 17:53:00
UTC Time2018-09-21 18:25:54
Flight Rules vfr VFR
Wind310° at 18 Gusting to 24 kt
W.Decomp.*RWY 31: 18.0 kt HW 0.9 kt LCW
RWY 36: 10.8 kt HW 14.4 kt LCW
W.Rank310° ranks 10
Current wind is above 310° avg. (10.3)
Visibility9999 m
Phenomena:N/A
Clouds:Scattered 030 Hf
Broken 034 Hf
Expected CloudBase > 2,800 ft AGL from Temp-Dew spread
Ceiling3,400 ft
Temp18°C (ISA +5)
Dew Point11°C (64% RH)
AAT11.9°C
QNH1018 hPa
Density Alt1,693 ft
Elevation1,077 ft
Report Wrong Elevation
Raw Report
KDBQ 211753Z 31018G24KT 10SM SCT030 BKN034 18/11 A3005 RMK AO2 PK
WND 31028/1701 SLP171 T01780106 10183 20150 51017=

Extra information for KDBQ:More info

Metar Taf Metar & Taf Last 4 Metars F.Rules Stats Wind Profile Meteogram Temp Stats Airport Information Weather charts Add Link Nearby VenuesMetar ALERT Operation Metar Decoded Social comments

AIRNAV info for KDBQ